MAPA DE AEROPUERTO

INFORMACIÓN METAR y TAF

METAR FOR GCHI
ADDS - METARS form results

(1838 UTC 23 October 2021)
Data provider http://aviationweather.gov/metar/data/
 
METAR text: GCHI 231830Z AUTO 04016KT 9999 FEW060 22/17 Q1019
Conditions at: GCHI (HIERRO AIRPORT , ES) observed 1830 UTC 23 October 2021
Temperature: 22.0°C (72°F)
Dewpoint: 17.0°C (63°F) [RH = 73%]
Pressure (altimeter): 30.09 inches Hg (1019.0 mb)
Winds: from the NE (40 degrees) at 18 MPH (16 knots; 8.2 m/s)
Visibility: 6 or more miles (10+ km)
Ceiling: at least 12,000 feet AGL
Clouds: few clouds at 6000 feet AGL
Weather: no significant weather observed at this time

METAR text: GCHI 231800Z AUTO 04016KT CAVOK 22/17 Q1019
Conditions at: GCHI (HIERRO AIRPORT , ES) observed 1800 UTC 23 October 2021
Temperature: 22.0°C (72°F)
Dewpoint: 17.0°C (63°F) [RH = 73%]
Pressure (altimeter): 30.09 inches Hg (1019.0 mb)
Winds: from the NE (40 degrees) at 18 MPH (16 knots; 8.2 m/s)
Visibility: 6 or more miles (10+ km)
Ceiling: ceiling and visibility are OK
Clouds: unknown
Weather: no significant weather observed at this time

Forecast for: GCHI (HIERRO AIRPORT , ES)
Text: TAF GCHI 231400Z 2315/2415 03011KT 9999 SCT025 TX25/2414Z TN20/2406Z
Forecast period: 1500 UTC 23 October 2021 to 1500 UTC 24 October 2021
Forecast type: FROM: standard forecast or significant change
Winds: from the NNE (30 degrees) at 13 MPH (11 knots; 5.7 m/s)
Visibility: 6 or more miles (10+ km)
Ceiling: at least 12,000 feet AGL
Clouds: scattered clouds at 2500 feet AGL
Weather: no significant weather forecast for this period